createdAt,value
2019-04-30T00:00:39.915Z,1.93
2019-04-30T00:03:11.500Z,2.03
2019-04-30T00:05:40.596Z,2.30
2019-04-30T00:08:09.291Z,1.87
2019-04-30T00:10:41.320Z,2.10
2019-04-30T00:13:10.551Z,2.50
2019-04-30T00:15:39.039Z,2.10
2019-04-30T00:18:07.735Z,2.53
2019-04-30T00:20:38.595Z,2.10
2019-04-30T00:23:07.373Z,2.20
2019-04-30T00:25:36.264Z,2.10
2019-04-30T00:28:08.623Z,2.07
2019-04-30T00:30:39.369Z,2.30
2019-04-30T00:33:06.201Z,2.17
2019-04-30T00:35:35.539Z,1.90
2019-04-30T00:38:05.083Z,2.10
2019-04-30T00:40:35.220Z,2.07
2019-04-30T00:43:09.915Z,2.20
2019-04-30T00:45:39.928Z,2.00
2019-04-30T00:48:09.148Z,2.97
2019-04-30T00:50:37.851Z,1.90
2019-04-30T00:53:12.547Z,2.10
2019-04-30T00:55:40.208Z,2.00
2019-04-30T00:58:07.279Z,1.97
2019-04-30T01:00:37.607Z,1.93
2019-04-30T01:03:10.612Z,1.90
2019-04-30T01:05:39.531Z,2.37
2019-04-30T01:08:10.217Z,2.70
2019-04-30T01:10:38.911Z,2.10
2019-04-30T01:13:11.827Z,2.50
2019-04-30T01:15:39.084Z,2.63
2019-04-30T01:18:09.359Z,2.57
2019-04-30T01:20:38.672Z,2.80
2019-04-30T01:23:11.243Z,2.83
2019-04-30T01:25:43.191Z,2.67
2019-04-30T01:28:10.789Z,2.63
2019-04-30T01:30:39.719Z,3.00
2019-04-30T01:33:09.150Z,2.83
2019-04-30T01:35:38.237Z,3.20
2019-04-30T01:38:11.646Z,3.23
2019-04-30T01:40:59.642Z,3.10
2019-04-30T01:43:33.529Z,3.80
2019-04-30T01:46:03.257Z,3.03
2019-04-30T01:48:29.301Z,3.17
2019-04-30T01:50:58.687Z,3.40
2019-04-30T01:53:28.606Z,3.07
2019-04-30T01:55:59.255Z,3.57
2019-04-30T01:58:30.192Z,3.40
2019-04-30T02:01:03.671Z,3.17
2019-04-30T02:03:32.366Z,3.33
2019-04-30T02:06:01.052Z,3.70
2019-04-30T02:08:29.750Z,3.50
2019-04-30T02:10:59.421Z,3.40
2019-04-30T02:13:31.159Z,3.20
2019-04-30T02:15:59.236Z,3.80
2019-04-30T02:18:29.629Z,3.37
2019-04-30T02:20:59.483Z,3.50
2019-04-30T02:23:29.710Z,4.03
2019-04-30T02:25:59.109Z,3.40
2019-04-30T02:28:29.030Z,3.63
2019-04-30T02:30:59.898Z,3.50
2019-04-30T02:33:30.611Z,3.57
2019-04-30T02:36:06.924Z,3.40
2019-04-30T02:38:39.547Z,3.53
2019-04-30T02:41:09.837Z,3.63
2019-04-30T02:43:40.974Z,3.53
2019-04-30T02:46:12.243Z,3.60
2019-04-30T02:48:42.636Z,3.40
2019-04-30T02:51:13.904Z,3.63
2019-04-30T02:54:00.653Z,3.20
2019-04-30T02:56:30.067Z,3.17
2019-04-30T02:59:00.443Z,3.43
2019-04-30T03:01:30.501Z,3.27
2019-04-30T03:03:59.910Z,2.73
2019-04-30T03:06:30.404Z,3.20
2019-04-30T03:09:01.177Z,3.20
2019-04-30T03:11:30.185Z,3.10
2019-04-30T03:13:59.422Z,3.30
2019-04-30T03:16:35.861Z,3.07
2019-04-30T03:19:09.702Z,3.40
2019-04-30T03:21:41.817Z,3.33
2019-04-30T03:24:11.327Z,3.03
2019-04-30T03:26:40.515Z,3.30
2019-04-30T03:29:11.139Z,3.30
2019-04-30T03:31:44.290Z,3.40
2019-04-30T03:34:16.783Z,3.20
2019-04-30T03:36:40.794Z,3.20
2019-04-30T03:39:10.858Z,3.30
2019-04-30T03:41:41.399Z,3.40
2019-04-30T03:44:24.753Z,3.30
2019-04-30T03:46:40.907Z,2.83
2019-04-30T03:49:12.599Z,3.20
2019-04-30T03:51:40.493Z,3.20
2019-04-30T03:54:10.070Z,3.33
2019-04-30T03:56:39.874Z,3.30
2019-04-30T03:59:10.667Z,3.07
2019-04-30T04:02:02.897Z,3.13
2019-04-30T04:04:33.303Z,3.30
2019-04-30T04:07:20.360Z,2.90
2019-04-30T04:09:50.783Z,3.23
2019-04-30T04:12:26.219Z,3.03
2019-04-30T04:14:55.001Z,3.10
2019-04-30T04:17:23.748Z,3.17
2019-04-30T04:19:52.439Z,3.53
2019-04-30T04:22:21.435Z,3.07
2019-04-30T04:24:50.928Z,2.80
2019-04-30T04:27:19.890Z,2.80
2019-04-30T04:29:51.060Z,2.93
2019-04-30T04:32:20.632Z,3.10
2019-04-30T04:34:50.467Z,2.80
2019-04-30T04:37:20.327Z,3.00
2019-04-30T04:39:50.170Z,2.97
2019-04-30T04:42:19.804Z,2.90
2019-04-30T04:44:50.290Z,3.00
2019-04-30T04:47:19.824Z,2.83
2019-04-30T04:49:53.076Z,3.23
2019-04-30T04:52:21.544Z,3.00
2019-04-30T04:54:50.606Z,3.00
2019-04-30T04:57:22.749Z,2.97
2019-04-30T04:59:50.270Z,2.90
2019-04-30T05:02:39.688Z,2.90
2019-04-30T05:05:09.641Z,3.00
2019-04-30T05:07:39.929Z,3.37
2019-04-30T05:10:09.374Z,2.73
2019-04-30T05:12:39.843Z,3.27
2019-04-30T05:15:09.518Z,3.10
2019-04-30T05:17:39.786Z,3.70
2019-04-30T05:20:10.062Z,2.77
2019-04-30T05:22:39.024Z,3.23
2019-04-30T05:25:08.901Z,2.40
2019-04-30T05:27:39.210Z,3.00
2019-04-30T05:30:09.683Z,2.80
2019-04-30T05:32:39.295Z,2.37
2019-04-30T05:35:09.592Z,2.97
2019-04-30T05:37:38.598Z,3.30
2019-04-30T05:40:09.149Z,2.77
2019-04-30T05:42:38.725Z,3.03
2019-04-30T05:45:09.327Z,3.03
2019-04-30T05:47:38.917Z,2.80
2019-04-30T05:50:08.957Z,3.07
2019-04-30T05:52:39.822Z,3.13
2019-04-30T05:55:08.706Z,2.93
2019-04-30T05:57:40.789Z,3.17
2019-04-30T06:00:10.067Z,2.97
2019-04-30T06:02:40.032Z,3.13
2019-04-30T06:05:09.290Z,3.13
2019-04-30T06:07:39.540Z,2.40
2019-04-30T06:10:16.108Z,3.10
2019-04-30T06:12:46.443Z,2.90
2019-04-30T06:15:25.887Z,2.97
2019-04-30T06:18:00.929Z,2.67
2019-04-30T06:20:25.583Z,2.97
2019-04-30T06:22:55.987Z,3.03
2019-04-30T06:25:32.336Z,2.63
2019-04-30T06:27:55.355Z,2.90
2019-04-30T06:30:25.625Z,2.77
2019-04-30T06:32:54.819Z,2.67
2019-04-30T06:35:23.911Z,2.80
2019-04-30T06:37:52.603Z,3.10
2019-04-30T06:40:21.403Z,3.20
2019-04-30T06:42:50.092Z,3.00
2019-04-30T06:45:19.145Z,2.87
2019-04-30T06:47:49.025Z,2.47
2019-04-30T06:50:19.415Z,3.13
2019-04-30T06:52:56.683Z,2.87
2019-04-30T06:55:19.252Z,3.17
2019-04-30T06:57:49.693Z,3.40
2019-04-30T07:00:19.570Z,2.80
2019-04-30T07:02:49.531Z,2.93
2019-04-30T07:05:18.715Z,2.50
2019-04-30T07:07:57.418Z,2.67
2019-04-30T07:10:21.279Z,2.97
2019-04-30T07:12:51.623Z,2.80
2019-04-30T07:15:20.379Z,2.43
2019-04-30T07:17:49.307Z,2.67
2019-04-30T07:20:19.132Z,3.10
2019-04-30T07:22:52.396Z,2.70
2019-04-30T07:25:19.555Z,2.60
2019-04-30T07:27:50.499Z,3.10
2019-04-30T07:30:19.240Z,2.50
2019-04-30T07:32:48.795Z,2.60
2019-04-30T07:35:19.466Z,2.60
2019-04-30T07:37:49.798Z,2.77
2019-04-30T07:40:19.032Z,2.30
2019-04-30T07:42:49.296Z,2.70
2019-04-30T07:45:19.446Z,2.77
2019-04-30T07:47:49.455Z,2.70
2019-04-30T07:50:21.487Z,2.77
2019-04-30T07:53:01.583Z,2.87
2019-04-30T07:55:19.738Z,2.50
2019-04-30T07:57:50.657Z,2.87
2019-04-30T08:00:19.311Z,2.50
2019-04-30T08:03:05.491Z,2.90
2019-04-30T08:05:36.024Z,3.30
2019-04-30T08:08:17.719Z,2.60
2019-04-30T08:10:35.158Z,2.90
2019-04-30T08:13:10.101Z,2.83
2019-04-30T08:15:34.197Z,2.90
2019-04-30T08:18:05.861Z,2.93
2019-04-30T08:20:33.264Z,2.70
2019-04-30T08:23:13.410Z,3.00
2019-04-30T08:25:32.316Z,2.70
2019-04-30T08:28:01.055Z,2.67
2019-04-30T08:30:30.110Z,2.70
2019-04-30T08:32:59.602Z,2.87
2019-04-30T08:35:29.641Z,2.90
2019-04-30T08:37:59.074Z,2.60
2019-04-30T08:40:29.590Z,2.70
2019-04-30T08:42:59.509Z,3.07
2019-04-30T08:45:31.079Z,2.50
2019-04-30T08:47:59.079Z,2.97
2019-04-30T08:50:29.683Z,2.70
2019-04-30T08:52:59.774Z,3.10
2019-04-30T08:55:30.485Z,2.80
2019-04-30T08:58:09.276Z,2.90
2019-04-30T09:00:29.818Z,2.87
2019-04-30T09:02:59.350Z,2.63
2019-04-30T09:05:35.884Z,2.77
2019-04-30T09:08:06.420Z,2.67
2019-04-30T09:10:35.123Z,2.77
2019-04-30T09:13:03.832Z,2.77
2019-04-30T09:15:32.591Z,2.75
2019-04-30T09:18:06.367Z,2.50
2019-04-30T09:20:31.622Z,2.80
2019-04-30T09:23:00.319Z,2.90
2019-04-30T09:25:29.013Z,2.70
2019-04-30T09:27:58.790Z,2.90
2019-04-30T09:30:29.803Z,2.73
2019-04-30T09:32:59.474Z,2.60
2019-04-30T09:35:31.771Z,3.00
2019-04-30T09:38:01.400Z,2.50
2019-04-30T09:40:32.316Z,3.13
2019-04-30T09:43:00.464Z,2.50
2019-04-30T09:45:29.410Z,2.70
2019-04-30T09:47:59.254Z,2.60
2019-04-30T09:50:29.045Z,2.50
2019-04-30T09:53:00.177Z,2.85
2019-04-30T09:55:29.066Z,2.90
2019-04-30T09:57:58.879Z,2.70
2019-04-30T10:00:29.500Z,3.00
2019-04-30T10:02:59.897Z,2.80
2019-04-30T10:05:29.257Z,2.50
2019-04-30T10:07:59.445Z,2.65
2019-04-30T10:10:29.972Z,2.47
2019-04-30T10:12:59.295Z,2.93
2019-04-30T10:15:42.199Z,3.02
2019-04-30T10:18:10.903Z,2.80
2019-04-30T10:20:44.083Z,3.05
2019-04-30T10:23:12.792Z,3.00
2019-04-30T10:25:41.479Z,3.50
2019-04-30T10:28:10.286Z,3.60
2019-04-30T10:30:39.442Z,3.50
2019-04-30T10:33:10.014Z,3.20
2019-04-30T10:35:38.677Z,4.17
2019-04-30T10:38:09.706Z,3.58
2019-04-30T10:40:39.030Z,4.30
2019-04-30T10:43:08.911Z,4.10
2019-04-30T10:45:38.810Z,4.22
2019-04-30T10:48:08.994Z,4.33
2019-04-30T10:50:40.793Z,4.20
2019-04-30T10:53:09.155Z,4.20
2019-04-30T10:55:38.769Z,4.40
2019-04-30T10:58:07.551Z,4.58
2019-04-30T11:00:41.683Z,4.67
2019-04-30T11:03:19.052Z,5.05
2019-04-30T11:05:41.427Z,4.45
2019-04-30T11:08:10.231Z,4.62
2019-04-30T11:10:39.925Z,4.58
2019-04-30T11:13:08.878Z,5.50
2019-04-30T11:15:39.314Z,6.08
2019-04-30T11:18:08.064Z,5.47
2019-04-30T11:20:36.944Z,5.22
2019-04-30T11:23:14.263Z,6.87
2019-04-30T11:25:37.110Z,6.80
2019-04-30T11:28:06.876Z,5.67
2019-04-30T11:30:36.772Z,5.03
2019-04-30T11:33:06.166Z,5.37
2019-04-30T11:35:35.171Z,5.50
2019-04-30T11:38:04.275Z,5.60
2019-04-30T11:40:37.195Z,5.03
2019-04-30T11:43:03.931Z,4.80
2019-04-30T11:45:47.840Z,5.50
2019-04-30T11:48:16.739Z,5.67
2019-04-30T11:50:45.455Z,5.47
2019-04-30T11:53:24.512Z,5.40
2019-04-30T11:55:44.511Z,5.92
2019-04-30T11:58:21.338Z,5.50
2019-04-30T12:00:45.227Z,5.60
2019-04-30T12:03:13.924Z,5.92
2019-04-30T12:05:42.694Z,6.22
2019-04-30T12:08:16.044Z,5.70
2019-04-30T12:10:46.591Z,5.78
2019-04-30T12:13:22.699Z,6.03
2019-04-30T12:15:51.547Z,5.72
2019-04-30T12:18:20.235Z,5.83
2019-04-30T12:20:48.928Z,5.80
2019-04-30T12:23:19.003Z,6.60
2019-04-30T12:25:49.303Z,6.30
2019-04-30T12:28:19.562Z,5.97
2019-04-30T12:30:49.061Z,6.62
2019-04-30T12:33:19.202Z,6.37
2019-04-30T12:35:51.018Z,6.87
2019-04-30T12:38:19.202Z,6.30
2019-04-30T12:40:48.095Z,6.70
2019-04-30T12:43:16.786Z,6.08
2019-04-30T12:45:45.495Z,6.92
2019-04-30T12:48:20.345Z,5.95
2019-04-30T12:50:53.415Z,6.22
2019-04-30T12:53:23.751Z,7.08
2019-04-30T12:56:02.895Z,6.35
2019-04-30T12:58:31.663Z,6.30
2019-04-30T13:01:00.428Z,6.17
2019-04-30T13:03:30.819Z,6.40
2019-04-30T13:06:01.312Z,6.33
2019-04-30T13:08:30.418Z,6.10
2019-04-30T13:10:59.967Z,6.15
2019-04-30T13:13:31.729Z,6.78
2019-04-30T13:16:00.032Z,6.40
2019-04-30T13:18:29.613Z,6.60
2019-04-30T13:20:58.844Z,6.40
2019-04-30T13:23:29.659Z,6.28
2019-04-30T13:25:58.444Z,6.60
2019-04-30T13:28:46.282Z,7.28
2019-04-30T13:31:15.051Z,6.80
2019-04-30T13:34:00.965Z,6.97
2019-04-30T13:36:27.554Z,7.17
2019-04-30T13:39:03.523Z,6.95
2019-04-30T13:41:45.888Z,7.55
2019-04-30T13:44:14.379Z,7.33
2019-04-30T13:46:43.078Z,7.37
2019-04-30T13:49:11.778Z,6.85
2019-04-30T13:51:42.873Z,7.47
2019-04-30T13:54:10.834Z,7.12
2019-04-30T13:56:39.740Z,7.53
2019-04-30T13:59:08.541Z,7.10
2019-04-30T14:01:39.094Z,7.40
2019-04-30T14:04:15.751Z,7.17
2019-04-30T14:07:02.831Z,7.42
2019-04-30T14:09:33.167Z,7.65
2019-04-30T14:12:01.875Z,7.25
2019-04-30T14:14:30.570Z,7.65
2019-04-30T14:17:01.215Z,6.70
2019-04-30T14:19:29.898Z,6.58
2019-04-30T14:21:59.027Z,7.30
2019-04-30T14:24:27.851Z,7.45
2019-04-30T14:26:56.547Z,7.42
2019-04-30T14:29:25.256Z,7.40
2019-04-30T14:31:54.163Z,7.28
2019-04-30T14:34:22.867Z,7.20
2019-04-30T14:36:51.563Z,7.72
2019-04-30T14:39:20.481Z,7.03
2019-04-30T14:41:51.957Z,6.92
2019-04-30T14:44:31.199Z,7.17
2019-04-30T14:46:59.690Z,7.47
2019-04-30T14:49:42.204Z,7.55
2019-04-30T14:52:11.536Z,7.60
2019-04-30T14:55:18.761Z,7.83
2019-04-30T14:57:55.035Z,7.80
2019-04-30T15:00:43.688Z,7.17
2019-04-30T15:03:20.315Z,7.10
2019-04-30T15:05:51.610Z,7.65
2019-04-30T15:08:19.494Z,7.62
2019-04-30T15:10:48.184Z,7.97
2019-04-30T15:13:16.948Z,7.83
2019-04-30T15:15:45.657Z,7.70
2019-04-30T15:18:14.439Z,7.50
2019-04-30T15:20:43.148Z,7.67
2019-04-30T15:23:22.491Z,7.47
2019-04-30T15:25:51.355Z,7.92
2019-04-30T15:28:20.059Z,7.95
2019-04-30T15:30:48.940Z,7.28
2019-04-30T15:33:38.544Z,7.55
2019-04-30T15:36:09.635Z,7.80
2019-04-30T15:38:55.674Z,7.42
2019-04-30T15:41:24.639Z,6.80
2019-04-30T15:43:53.414Z,7.37
2019-04-30T15:46:22.194Z,7.40
2019-04-30T15:48:50.887Z,6.92
2019-04-30T15:51:19.595Z,7.22
2019-04-30T15:53:48.295Z,6.87
2019-04-30T15:56:16.999Z,7.45
2019-04-30T15:58:59.239Z,7.08
2019-04-30T16:01:29.061Z,7.85
2019-04-30T16:03:57.987Z,7.20
2019-04-30T16:06:28.465Z,7.47
2019-04-30T16:08:58.624Z,6.87
2019-04-30T16:11:31.891Z,7.10
2019-04-30T16:14:18.651Z,7.78
2019-04-30T16:16:49.051Z,6.95
2019-04-30T16:19:18.788Z,7.05
2019-04-30T16:21:47.627Z,6.95
2019-04-30T16:24:18.558Z,7.53
2019-04-30T16:26:50.633Z,6.75
2019-04-30T16:29:17.199Z,7.15
2019-04-30T16:31:45.963Z,7.08
2019-04-30T16:34:14.666Z,7.30
2019-04-30T16:36:43.363Z,7.25
2019-04-30T16:39:12.167Z,7.42
2019-04-30T16:41:40.988Z,6.92
2019-04-30T16:44:09.703Z,7.17
2019-04-30T16:46:39.534Z,7.08
2019-04-30T16:49:10.205Z,7.17
2019-04-30T16:51:38.718Z,7.33
2019-04-30T16:54:08.634Z,6.90
2019-04-30T16:56:38.698Z,7.30
2019-04-30T16:59:09.110Z,6.95
2019-04-30T17:01:38.121Z,6.90
2019-04-30T17:04:19.098Z,7.28
2019-04-30T17:07:05.415Z,7.20
2019-04-30T17:09:35.753Z,6.97
2019-04-30T17:12:08.485Z,7.53
2019-04-30T17:14:38.834Z,6.75
2019-04-30T17:17:07.674Z,7.22
2019-04-30T17:19:36.380Z,7.42
2019-04-30T17:22:05.175Z,6.97
2019-04-30T17:24:33.883Z,6.78
2019-04-30T17:27:02.579Z,6.30
2019-04-30T17:29:31.299Z,7.05
2019-04-30T17:32:00.063Z,6.83
2019-04-30T17:34:28.884Z,6.75
2019-04-30T17:36:59.209Z,6.20
2019-04-30T17:39:28.175Z,6.60
2019-04-30T17:41:56.882Z,6.95
2019-04-30T17:44:25.668Z,6.78
2019-04-30T17:46:54.297Z,6.78
2019-04-30T17:49:22.991Z,7.50
2019-04-30T17:51:51.723Z,6.70
2019-04-30T17:54:20.403Z,6.45
2019-04-30T17:56:49.098Z,6.62
2019-04-30T17:59:17.803Z,6.20
2019-04-30T18:01:49.620Z,6.50
2019-04-30T18:04:18.708Z,7.10
2019-04-30T18:06:48.386Z,6.95
2019-04-30T18:09:19.211Z,6.50
2019-04-30T18:11:49.606Z,7.05
2019-04-30T18:14:18.815Z,7.20
2019-04-30T18:16:48.640Z,6.90
2019-04-30T18:19:19.176Z,7.47
2019-04-30T18:21:59.681Z,7.33
2019-04-30T18:24:39.446Z,6.57
2019-04-30T18:27:16.219Z,6.37
2019-04-30T18:29:46.387Z,6.90
2019-04-30T18:32:15.495Z,6.75
2019-04-30T18:34:44.191Z,6.95
2019-04-30T18:37:12.906Z,7.12
2019-04-30T18:39:41.599Z,7.15
2019-04-30T18:42:11.078Z,6.10
2019-04-30T18:44:39.855Z,6.25
2019-04-30T18:47:09.053Z,6.37
2019-04-30T18:49:39.457Z,5.85
2019-04-30T18:52:09.105Z,6.17
2019-04-30T18:54:39.717Z,6.43
2019-04-30T18:57:08.355Z,6.25
2019-04-30T18:59:37.052Z,6.13
2019-04-30T19:02:07.699Z,6.50
2019-04-30T19:04:38.897Z,6.67
2019-04-30T19:07:11.130Z,6.43
2019-04-30T19:09:41.470Z,6.43
2019-04-30T19:12:19.412Z,7.00
2019-04-30T19:15:06.247Z,6.70
2019-04-30T19:17:52.747Z,6.20
2019-04-30T19:20:23.088Z,6.60
2019-04-30T19:22:51.796Z,6.80
2019-04-30T19:25:20.559Z,6.40
2019-04-30T19:27:49.663Z,6.93
2019-04-30T19:30:19.376Z,7.03
2019-04-30T19:32:49.152Z,6.37
2019-04-30T19:35:18.778Z,6.47
2019-04-30T19:37:48.689Z,6.42
2019-04-30T19:40:18.994Z,6.57
2019-04-30T19:42:50.260Z,7.07
2019-04-30T19:45:18.224Z,6.40
2019-04-30T19:47:48.857Z,6.33
2019-04-30T19:50:19.134Z,6.67
2019-04-30T19:52:47.915Z,6.77
2019-04-30T19:55:20.479Z,6.58
2019-04-30T19:57:48.403Z,6.93
2019-04-30T20:00:17.751Z,6.77
2019-04-30T20:02:48.571Z,6.53
2019-04-30T20:05:16.895Z,6.53
2019-04-30T20:07:45.599Z,6.60
2019-04-30T20:10:14.295Z,6.77
2019-04-30T20:15:29.795Z,6.70
2019-04-30T20:18:00.989Z,6.33
2019-04-30T20:20:29.051Z,7.37
2019-04-30T20:22:57.819Z,6.80
2019-04-30T20:25:26.520Z,7.47
2019-04-30T20:27:55.218Z,7.10
2019-04-30T20:30:23.930Z,6.50
2019-04-30T20:32:52.654Z,6.10
2019-04-30T20:35:21.364Z,6.90
2019-04-30T20:38:09.496Z,7.60
2019-04-30T20:40:43.616Z,7.33
2019-04-30T20:43:10.637Z,7.50
2019-04-30T20:45:39.247Z,7.00
2019-04-30T20:48:08.956Z,7.27
2019-04-30T20:50:37.753Z,7.37
2019-04-30T20:53:08.731Z,7.20
2019-04-30T20:55:40.581Z,7.80
2019-04-30T20:58:09.342Z,7.50
2019-04-30T21:00:37.863Z,7.10
2019-04-30T21:03:06.558Z,7.30
2019-04-30T21:05:35.340Z,7.03
2019-04-30T21:08:04.156Z,7.03
2019-04-30T21:10:32.851Z,7.50
2019-04-30T21:13:01.556Z,7.20
2019-04-30T21:15:30.249Z,7.20
2019-04-30T21:17:59.019Z,7.10
2019-04-30T21:20:28.857Z,7.43
2019-04-30T21:22:59.486Z,8.20
2019-04-30T21:25:29.226Z,7.10
2019-04-30T21:27:59.920Z,6.80
2019-04-30T21:30:28.390Z,7.10
2019-04-30T21:33:04.715Z,6.73
2019-04-30T21:35:37.770Z,7.27
2019-04-30T21:38:06.612Z,7.07
2019-04-30T21:40:36.703Z,7.50
2019-04-30T21:43:05.506Z,7.60
2019-04-30T21:45:34.223Z,7.20
2019-04-30T21:48:02.931Z,7.23
2019-04-30T21:50:31.625Z,7.33
2019-04-30T21:53:00.527Z,7.00
2019-04-30T21:55:29.698Z,6.67
2019-04-30T21:57:59.380Z,7.90
2019-04-30T22:00:36.855Z,6.90
2019-04-30T22:03:09.579Z,7.40
2019-04-30T22:05:37.743Z,6.87
2019-04-30T22:08:06.442Z,7.20
2019-04-30T22:10:35.197Z,6.70
2019-04-30T22:13:03.888Z,6.87
2019-04-30T22:15:32.590Z,7.37
2019-04-30T22:18:01.355Z,6.90
2019-04-30T22:20:30.119Z,6.97
2019-04-30T22:22:58.820Z,6.90
2019-04-30T22:25:29.332Z,7.13
2019-04-30T22:27:57.949Z,7.70
2019-04-30T22:30:26.643Z,6.70
2019-04-30T22:32:55.546Z,7.37
2019-04-30T22:35:28.561Z,7.37
2019-04-30T22:38:01.724Z,6.87
2019-04-30T22:40:31.657Z,7.27
2019-04-30T22:43:00.419Z,6.90
2019-04-30T22:45:30.752Z,6.80
2019-04-30T22:47:59.443Z,7.07
2019-04-30T22:50:28.146Z,6.70
2019-04-30T22:52:56.835Z,7.67
2019-04-30T22:55:25.569Z,7.97
2019-04-30T22:57:54.258Z,7.40
2019-04-30T23:00:24.726Z,6.93
2019-04-30T23:02:57.937Z,7.23
2019-04-30T23:05:26.627Z,7.57
2019-04-30T23:07:55.323Z,7.33
2019-04-30T23:10:24.290Z,7.13
2019-04-30T23:12:53.086Z,7.57
2019-04-30T23:15:22.153Z,7.33
2019-04-30T23:17:51.079Z,7.83
2019-04-30T23:20:19.783Z,8.30
2019-04-30T23:22:48.487Z,7.70
2019-04-30T23:25:17.184Z,7.27
2019-04-30T23:27:45.895Z,7.37
2019-04-30T23:30:14.687Z,7.43
2019-04-30T23:32:43.382Z,7.37
2019-04-30T23:35:12.080Z,7.80
2019-04-30T23:37:40.771Z,7.80
2019-04-30T23:40:21.419Z,7.43
2019-04-30T23:42:50.415Z,6.87
2019-04-30T23:45:19.111Z,7.90
2019-04-30T23:47:47.799Z,7.20
2019-04-30T23:50:16.495Z,7.30
2019-04-30T23:52:45.187Z,7.10
2019-04-30T23:55:14.174Z,7.10
2019-04-30T23:57:42.872Z,7.13
